Time;durP1;ratioP1;P1;durP2;ratioP2;P2;SDS_P1;SDS_P2;PMS_P1;PMS_P2;Temp;Humidity;BMP_temperature;BMP_pressure;BME280_temperature;BME280_humidity;BME280_pressure;Samples;Min_cycle;Max_cycle;Signal;HPM_P1;HPM_P2
2024/03/05 00:01:58;;;;;;;58.40;28.27;;;;;;;4.00;66.34;100386.42;124324;1099;104440;-80
2024/03/05 00:04:29;;;;;;;51.40;26.73;;;;;;;3.98;66.39;100389.75;124176;1099;104340;-80
2024/03/05 00:07:01;;;;;;;54.67;26.27;;;;;;;3.94;67.03;100386.97;124166;1099;104354;-80
2024/03/05 00:09:32;;;;;;;54.50;26.73;;;;;;;3.92;66.88;100379.88;124020;1099;104287;-80
2024/03/05 00:12:04;;;;;;;50.03;24.00;;;;;;;3.94;66.32;100379.19;124168;1099;104198;-79
2024/03/05 00:14:35;;;;;;;45.73;23.13;;;;;;;3.96;66.78;100377.56;123736;1099;104444;-79
2024/03/05 00:17:06;;;;;;;49.03;23.00;;;;;;;3.98;67.63;100375.06;123726;1099;104302;-79
2024/03/05 00:19:38;;;;;;;47.53;21.90;;;;;;;3.97;68.12;100370.66;124086;1099;104251;-80
2024/03/05 00:22:09;;;;;;;49.90;22.17;;;;;;;3.97;67.59;100368.06;124215;1099;104344;-80
2024/03/05 00:24:40;;;;;;;53.03;24.03;;;;;;;3.93;67.83;100369.59;123636;1098;104277;-80
2024/03/05 00:27:11;;;;;;;52.73;24.20;;;;;;;3.90;67.99;100379.79;124135;1099;104351;-79
2024/03/05 00:29:42;;;;;;;49.57;24.60;;;;;;;3.85;68.59;100373.44;123874;1099;104303;-78
2024/03/05 00:32:14;;;;;;;51.50;22.80;;;;;;;3.78;68.83;100371.26;123636;1099;104351;-79
2024/03/05 00:34:45;;;;;;;51.50;23.67;;;;;;;3.74;68.71;100369.27;124055;1099;104687;-79
2024/03/05 00:37:16;;;;;;;52.10;23.30;;;;;;;3.74;68.12;100369.27;123855;1099;104364;-80
2024/03/05 00:39:48;;;;;;;52.97;22.43;;;;;;;3.73;69.10;100367.50;124024;1099;104360;-79
2024/03/05 00:42:19;;;;;;;50.37;21.73;;;;;;;3.73;69.48;100381.36;123964;1099;104651;-80
2024/03/05 00:44:50;;;;;;;50.67;24.30;;;;;;;3.70;69.90;100375.98;124054;1099;104267;-80
2024/03/05 00:47:22;;;;;;;52.13;24.10;;;;;;;3.69;69.30;100371.58;124081;1099;104261;-80
2024/03/05 00:49:55;;;;;;;49.13;21.33;;;;;;;3.67;71.56;100367.13;123940;1099;104345;-80
2024/03/05 00:52:26;;;;;;;52.00;22.50;;;;;;;3.62;69.97;100368.55;123653;1099;104275;-80
2024/03/05 00:54:58;;;;;;;49.13;22.47;;;;;;;3.58;70.25;100365.77;123933;1098;104212;-79
2024/03/05 00:57:29;;;;;;;51.73;21.50;;;;;;;3.60;69.61;100368.45;123787;1099;104306;-80
2024/03/05 01:00:00;;;;;;;40.27;18.87;;;;;;;3.59;70.47;100361.47;123765;1099;104277;-79
2024/03/05 01:02:31;;;;;;;38.40;18.53;;;;;;;3.59;71.33;100371.84;124352;1099;104245;-80
2024/03/05 01:05:07;;;;;;;39.63;18.67;;;;;;;3.60;70.13;100366.75;124183;1099;104319;-80
2024/03/05 01:07:38;;;;;;;41.30;18.70;;;;;;;3.61;69.96;100359.84;124007;1099;104307;-80
2024/03/05 01:10:10;;;;;;;40.57;18.67;;;;;;;3.66;70.03;100361.05;123959;1099;104313;-80
2024/03/05 01:12:43;;;;;;;42.67;18.67;;;;;;;3.72;70.47;100369.17;123705;1099;104432;-80
2024/03/05 01:15:15;;;;;;;44.80;19.93;;;;;;;3.73;69.91;100364.91;123966;1099;104392;-80
2024/03/05 01:17:49;;;;;;;41.53;19.67;;;;;;;3.75;70.25;100365.88;124083;1099;104324;-80
2024/03/05 01:20:20;;;;;;;46.10;20.90;;;;;;;3.77;70.27;100372.97;123880;1099;104306;-81
2024/03/05 01:22:52;;;;;;;42.20;20.23;;;;;;;3.78;70.38;100366.95;123966;1099;104270;-81
2024/03/05 01:25:23;;;;;;;41.63;19.53;;;;;;;3.80;72.26;100371.35;124021;1099;104755;-81
2024/03/05 01:27:54;;;;;;;43.07;19.93;;;;;;;3.77;70.66;100375.56;123820;1099;104245;-80
2024/03/05 01:30:27;;;;;;;45.95;21.95;;;;;;;3.84;70.50;100378.53;123992;1099;104281;-80
2024/03/05 01:33:03;;;;;;;44.20;20.50;;;;;;;3.86;71.38;100385.59;123999;1099;104172;-80
2024/03/05 01:35:34;;;;;;;47.90;20.23;;;;;;;3.87;71.29;100383.91;124143;1099;104245;-80
2024/03/05 01:38:05;;;;;;;46.10;20.70;;;;;;;3.88;71.24;100384.00;123769;1099;104248;-80
2024/03/05 01:40:36;;;;;;;49.43;22.13;;;;;;;3.91;71.36;100383.27;124029;1099;104306;-80
2024/03/05 01:43:08;;;;;;;50.17;21.70;;;;;;;3.93;70.50;100386.88;124309;1099;104344;-80
2024/03/05 01:45:41;;;;;;;48.67;22.90;;;;;;;3.96;70.46;100389.66;123990;1099;104334;-80
2024/03/05 01:48:14;;;;;;;48.33;22.43;;;;;;;3.99;70.59;100383.73;123882;1099;104277;-80
2024/03/05 01:50:46;;;;;;;48.37;22.77;;;;;;;4.00;70.57;100388.13;123582;1099;104322;-80
2024/03/05 01:53:19;;;;;;;49.77;21.83;;;;;;;4.00;70.93;100394.21;123735;1099;104779;-80
2024/03/05 01:55:53;;;;;;;51.20;22.20;;;;;;;4.02;70.61;100389.11;123897;1099;104348;-80
2024/03/05 01:58:25;;;;;;;54.23;22.77;;;;;;;4.06;71.17;100389.39;123740;1102;104344;-81
2024/03/05 02:00:59;;;;;;;50.40;22.90;;;;;;;4.08;71.04;100393.00;124044;1099;104277;-80
2024/03/05 02:03:32;;;;;;;55.70;23.13;;;;;;;4.11;70.60;100387.06;124041;1098;104293;-80
2024/03/05 02:06:04;;;;;;;50.23;22.13;;;;;;;4.11;70.54;100387.06;124052;1099;104758;-80
2024/03/05 02:08:35;;;;;;;53.23;22.90;;;;;;;4.11;71.15;100397.45;123764;1099;104496;-80
2024/03/05 02:11:08;;;;;;;51.53;23.93;;;;;;;4.13;71.15;100398.47;123658;1099;104335;-79
2024/03/05 02:13:39;;;;;;;48.27;21.70;;;;;;;4.19;70.93;100400.52;124172;1099;104226;-80
2024/03/05 02:16:13;;;;;;;52.30;21.43;;;;;;;4.22;71.32;100405.89;123609;1099;104245;-80
2024/03/05 02:18:44;;;;;;;56.28;25.05;;;;;;;4.18;70.97;100409.13;123999;1099;104689;-80
2024/03/05 02:21:22;;;;;;;52.93;22.30;;;;;;;4.17;71.56;100402.13;123813;1099;104243;-80
2024/03/05 02:23:53;;;;;;;54.97;22.87;;;;;;;4.12;71.47;100407.94;124017;1099;104367;-80
2024/03/05 02:26:28;;;;;;;55.67;24.23;;;;;;;4.11;71.80;100403.57;124041;1099;104229;-80
2024/03/05 02:29:00;;;;;;;56.27;24.37;;;;;;;4.10;71.61;100400.88;123852;1099;104217;-80
2024/03/05 02:31:31;;;;;;;57.43;25.13;;;;;;;4.09;71.41;100404.27;123874;1099;105655;-79
2024/03/05 02:34:04;;;;;;;53.07;24.43;;;;;;;4.16;71.22;100402.92;123627;1099;104746;-81
2024/03/05 02:36:36;;;;;;;47.47;21.33;;;;;;;4.19;71.73;100400.52;123730;1099;104300;-80
2024/03/05 02:39:07;;;;;;;52.57;23.97;;;;;;;4.17;72.10;100402.13;123634;1099;104389;-80
2024/03/05 02:41:39;;;;;;;53.10;23.93;;;;;;;4.17;71.70;100397.82;123789;1099;104210;-79
2024/03/05 02:44:10;;;;;;;52.27;25.00;;;;;;;4.14;71.50;100400.23;123961;1099;104270;-80
2024/03/05 02:46:41;;;;;;;49.27;23.00;;;;;;;4.16;72.12;100408.12;123962;1099;104502;-79
2024/03/05 02:49:13;;;;;;;54.87;24.53;;;;;;;4.17;71.29;100402.13;123891;1099;104248;-79
2024/03/05 02:51:46;;;;;;;51.43;24.37;;;;;;;4.18;72.27;100404.82;123772;1099;104288;-78
2024/03/05 02:54:17;;;;;;;52.23;23.70;;;;;;;4.19;71.71;100409.22;124005;1099;104434;-79
2024/03/05 02:56:49;;;;;;;54.45;24.65;;;;;;;4.20;72.34;100404.91;123889;1099;104248;-80
2024/03/05 02:59:20;;;;;;;50.60;22.30;;;;;;;4.19;72.75;100400.52;123855;1099;104374;-80
2024/03/05 03:01:51;;;;;;;54.20;24.50;;;;;;;4.17;72.29;100408.21;123923;1099;104344;-80
2024/03/05 03:04:23;;;;;;;50.80;24.00;;;;;;;4.20;71.83;100403.20;123883;1099;104283;-80
2024/03/05 03:06:54;;;;;;;53.33;24.70;;;;;;;4.22;72.30;100401.58;123915;1099;104299;-79
2024/03/05 03:09:25;;;;;;;53.13;25.07;;;;;;;4.26;72.16;100400.97;123894;1099;104281;-80
2024/03/05 03:11:56;;;;;;;49.77;23.50;;;;;;;4.29;72.41;100402.86;123870;1099;104705;-80
2024/03/05 03:14:29;;;;;;;48.20;23.13;;;;;;;4.30;71.68;100405.55;123803;1099;108037;-80
2024/03/05 03:17:00;;;;;;;53.60;23.63;;;;;;;4.33;71.79;100404.81;123916;1099;104650;-79
2024/03/05 03:19:32;;;;;;;44.90;22.30;;;;;;;4.35;72.77;100408.42;123920;1099;104321;-80
2024/03/05 03:22:03;;;;;;;48.20;23.23;;;;;;;4.31;72.43;100402.13;124059;1099;104281;-79
2024/03/05 03:24:35;;;;;;;48.60;23.00;;;;;;;4.31;72.45;100402.13;123930;1099;104383;-81
2024/03/05 03:27:06;;;;;;;50.77;23.03;;;;;;;4.31;72.23;100407.33;123888;1098;104238;-80
2024/03/05 03:29:40;;;;;;;47.53;23.50;;;;;;;4.30;72.20;100408.15;123843;1099;104175;-80
2024/03/05 03:32:11;;;;;;;47.23;22.40;;;;;;;4.31;72.68;100409.92;123597;1099;104328;-79
2024/03/05 03:34:43;;;;;;;50.63;24.10;;;;;;;4.24;73.15;100407.78;123860;1099;104287;-79
2024/03/05 03:37:14;;;;;;;49.37;23.90;;;;;;;4.21;72.30;100402.41;123936;1099;104391;-80
2024/03/05 03:39:46;;;;;;;54.30;23.60;;;;;;;4.21;72.62;100415.39;123961;1099;104295;-80
2024/03/05 03:42:18;;;;;;;51.73;25.47;;;;;;;4.20;72.83;100413.59;123848;1099;104290;-79
2024/03/05 03:44:50;;;;;;;51.73;23.27;;;;;;;4.24;72.88;100417.26;123839;1099;104376;-80
2024/03/05 03:47:21;;;;;;;48.13;23.17;;;;;;;4.24;72.92;100415.58;124027;1099;104345;-80
2024/03/05 03:49:53;;;;;;;49.57;23.73;;;;;;;4.26;73.01;100410.47;123916;1099;104339;-80
2024/03/05 03:52:24;;;;;;;46.83;23.23;;;;;;;4.25;72.75;100414.75;123974;1099;104331;-80
2024/03/05 03:54:57;;;;;;;51.00;24.00;;;;;;;4.26;72.51;100416.55;123783;1099;104242;-80
2024/03/05 03:57:28;;;;;;;46.35;22.00;;;;;;;4.29;72.74;100414.14;123892;1099;104373;-80
2024/03/05 03:59:59;;;;;;;52.35;24.10;;;;;;;4.35;73.16;100415.30;123805;1099;104277;-80
2024/03/05 04:02:31;;;;;;;55.00;23.27;;;;;;;4.36;73.09;100417.09;123964;1099;104258;-80
2024/03/05 04:05:04;;;;;;;48.33;23.47;;;;;;;4.36;72.98;100417.98;123844;1099;105670;-80
2024/03/05 04:07:36;;;;;;;53.28;24.23;;;;;;;4.37;73.26;100413.70;123794;1099;104354;-80
2024/03/05 04:10:10;;;;;;;45.47;21.10;;;;;;;4.31;74.23;100420.31;123910;1099;104172;-80
2024/03/05 04:12:41;;;;;;;49.40;23.47;;;;;;;4.26;73.12;100424.34;123943;1099;104262;-80
2024/03/05 04:15:13;;;;;;;54.30;25.60;;;;;;;4.24;73.36;100425.05;123919;1099;104293;-80
2024/03/05 04:17:44;;;;;;;50.77;24.87;;;;;;;4.21;73.82;100427.50;123910;1099;104340;-79
2024/03/05 04:20:16;;;;;;;46.17;23.37;;;;;;;4.19;73.46;100423.89;123922;1099;104242;-80
2024/03/05 04:22:48;;;;;;;45.77;24.03;;;;;;;4.19;73.64;100423.89;123837;1099;104347;-78
2024/03/05 04:25:24;;;;;;;47.05;23.10;;;;;;;4.21;73.70;100415.39;123875;1099;104316;-78
2024/03/05 04:27:56;;;;;;;48.50;24.63;;;;;;;4.21;72.97;100415.39;123646;1102;104412;-78
2024/03/05 04:30:27;;;;;;;49.10;24.13;;;;;;;4.19;73.11;100414.42;123602;1099;104290;-78
2024/03/05 04:33:03;;;;;;;48.97;25.43;;;;;;;4.17;73.86;100416.00;123655;1098;104268;-79
2024/03/05 04:35:35;;;;;;;49.37;23.93;;;;;;;4.14;73.68;100418.41;123888;1099;104361;-79
2024/03/05 04:38:07;;;;;;;49.43;26.30;;;;;;;4.12;73.55;100409.64;123976;1099;104272;-80
2024/03/05 04:40:38;;;;;;;48.33;23.70;;;;;;;4.13;73.93;100414.05;124014;1099;104434;-78
2024/03/05 04:43:09;;;;;;;51.03;25.03;;;;;;;4.16;73.64;100414.23;123812;1099;104351;-80
2024/03/05 04:45:41;;;;;;;44.10;22.60;;;;;;;4.19;73.72;100414.42;123639;1099;104332;-79
2024/03/05 04:48:12;;;;;;;51.93;23.77;;;;;;;4.19;74.01;100419.61;123709;1099;104300;-79
2024/03/05 04:50:44;;;;;;;47.10;23.83;;;;;;;4.22;73.46;100416.28;123798;1099;104274;-78
2024/03/05 04:53:15;;;;;;;52.85;25.40;;;;;;;4.22;74.19;100424.07;123619;1099;104306;-79
2024/03/05 04:55:46;;;;;;;50.50;22.77;;;;;;;4.23;74.09;100421.56;123845;1099;104251;-79
2024/03/05 04:58:18;;;;;;;47.87;24.20;;;;;;;4.27;74.04;100420.03;123738;1099;104226;-79
2024/03/05 05:00:49;;;;;;;50.60;23.53;;;;;;;4.22;74.43;100417.16;123562;1099;104290;-79
2024/03/05 05:03:23;;;;;;;46.63;23.55;;;;;;;4.20;73.46;100417.90;123701;1099;104315;-79
2024/03/05 05:05:54;;;;;;;49.15;23.35;;;;;;;4.22;74.35;100411.08;123733;1099;104222;-79
2024/03/05 05:08:25;;;;;;;49.60;24.90;;;;;;;4.24;73.77;100425.05;123555;1099;104310;-80
2024/03/05 05:10:56;;;;;;;49.43;25.00;;;;;;;4.27;74.09;100423.55;124035;1099;104328;-79
2024/03/05 05:13:28;;;;;;;46.07;23.10;;;;;;;4.29;74.26;100418.45;123961;1099;104395;-79
2024/03/05 05:15:59;;;;;;;45.83;23.07;;;;;;;4.31;74.22;100422.91;123762;1099;104252;-80
2024/03/05 05:18:30;;;;;;;49.80;24.03;;;;;;;4.36;74.23;100428.38;124107;1099;104181;-80
2024/03/05 05:21:01;;;;;;;48.97;24.17;;;;;;;4.42;74.49;100431.34;123652;1099;104479;-80
2024/03/05 05:23:32;;;;;;;51.60;25.00;;;;;;;4.44;74.06;100428.83;123961;1099;104750;-80
2024/03/05 05:26:04;;;;;;;49.73;25.43;;;;;;;4.46;74.11;100420.33;123891;1099;104229;-80
2024/03/05 05:28:35;;;;;;;54.10;26.13;;;;;;;4.45;74.80;100430.64;124300;1099;104363;-80
2024/03/05 05:31:09;;;;;;;47.30;24.37;;;;;;;4.47;74.41;100436.81;124196;1099;104353;-80
2024/03/05 05:33:42;;;;;;;58.10;25.77;;;;;;;4.50;74.56;100435.31;124180;1098;104370;-79
2024/03/05 05:36:14;;;;;;;52.77;24.03;;;;;;;4.55;73.82;100437.27;123986;1099;104353;-79
2024/03/05 05:38:45;;;;;;;51.47;23.63;;;;;;;4.57;74.30;100440.87;124190;1098;104252;-80
2024/03/05 05:41:18;;;;;;;51.57;25.20;;;;;;;4.59;74.62;100437.53;123679;1099;104288;-80
2024/03/05 05:43:49;;;;;;;45.97;22.37;;;;;;;4.59;74.78;100445.33;123703;1099;104372;-79
2024/03/05 05:46:22;;;;;;;47.53;23.83;;;;;;;4.58;75.00;100438.36;124132;1099;104275;-80
2024/03/05 05:48:54;;;;;;;47.03;23.03;;;;;;;4.62;74.90;100442.03;124195;1099;104274;-79
2024/03/05 05:51:31;;;;;;;45.23;22.47;;;;;;;4.68;74.59;100445.87;124010;1099;104284;-79
2024/03/05 05:54:10;;;;;;;51.90;25.20;;;;;;;4.73;74.54;100443.54;124402;1098;104401;-79
2024/03/05 05:56:41;;;;;;;47.33;23.57;;;;;;;4.80;74.80;100440.50;124432;1099;104789;-79
2024/03/05 05:59:13;;;;;;;45.07;21.40;;;;;;;4.83;74.96;100444.95;124022;1099;104297;-80
2024/03/05 06:01:44;;;;;;;48.87;21.17;;;;;;;4.78;76.29;100446.41;124232;1099;104300;-81
2024/03/05 06:04:16;;;;;;;52.13;24.37;;;;;;;4.72;75.27;100446.97;124384;1099;104404;-79
2024/03/05 06:06:49;;;;;;;54.80;24.87;;;;;;;4.69;75.63;100449.39;124523;1099;104374;-79
2024/03/05 06:09:28;;;;;;;49.17;23.53;;;;;;;4.71;75.43;100445.16;124713;1099;104546;-79
2024/03/05 06:11:59;;;;;;;51.33;24.50;;;;;;;4.70;75.59;100453.76;124580;1099;104302;-80
2024/03/05 06:14:56;;;;;;;46.97;23.47;;;;;;;4.68;75.86;100457.98;124332;1099;104297;-80
2024/03/05 06:17:27;;;;;;;46.30;22.93;;;;;;;4.71;75.73;100452.96;126639;1099;101703;-77
2024/03/05 06:19:59;;;;;;;47.30;22.63;;;;;;;4.74;75.49;100454.86;125074;1099;104389;-79
2024/03/05 06:22:30;;;;;;;47.90;22.87;;;;;;;4.79;75.74;100458.61;124436;1099;104217;-79
2024/03/05 06:25:01;;;;;;;49.23;23.43;;;;;;;4.77;76.31;100452.40;124600;1099;104383;-79
2024/03/05 06:27:34;;;;;;;48.40;23.43;;;;;;;4.78;75.67;100452.48;124479;1098;104172;-79
2024/03/05 06:30:15;;;;;;;52.00;23.90;;;;;;;4.82;75.74;100459.67;124609;1099;103037;-80
2024/03/05 06:32:47;;;;;;;48.20;23.13;;;;;;;4.89;75.08;100458.31;124498;1099;104233;-79
2024/03/05 06:35:22;;;;;;;51.57;23.90;;;;;;;4.95;75.34;100458.67;124311;1099;104316;-79
2024/03/05 06:37:53;;;;;;;55.23;25.37;;;;;;;5.02;75.60;100457.34;124672;1099;104269;-79
2024/03/05 06:40:25;;;;;;;52.73;26.20;;;;;;;5.06;75.10;100453.20;124929;1099;104280;-80
2024/03/05 06:43:05;;;;;;;51.20;25.43;;;;;;;5.11;75.50;100454.34;124949;1099;103517;-80
2024/03/05 06:45:36;;;;;;;48.57;23.63;;;;;;;5.16;75.28;100452.92;124855;1099;104345;-80
2024/03/05 06:48:12;;;;;;;50.90;25.90;;;;;;;5.17;75.33;100452.09;124706;1099;102812;-79
2024/03/05 06:50:43;;;;;;;51.83;24.57;;;;;;;5.15;75.32;100452.00;125014;1101;101950;-80
2024/03/05 06:58:53;;;;;;;55.23;25.77;;;;;;;5.32;75.43;100450.36;125528;1098;102678;-80
2024/03/05 07:01:27;;;;;;;54.05;26.45;;;;;;;5.38;75.71;100452.41;124833;1099;102198;-79
2024/03/05 07:03:58;;;;;;;52.37;25.87;;;;;;;5.39;75.11;100442.09;125028;1099;104239;-80
2024/03/05 07:06:30;;;;;;;50.67;25.77;;;;;;;5.42;75.05;100438.73;125138;1099;104220;-79
2024/03/05 07:09:02;;;;;;;54.53;25.53;;;;;;;5.50;74.84;100447.89;124820;1099;104245;-80
2024/03/05 07:11:33;;;;;;;54.73;26.20;;;;;;;5.60;75.04;100436.27;124353;1099;104261;-80
2024/03/05 07:14:05;;;;;;;50.47;25.30;;;;;;;5.70;74.85;100442.86;124395;1099;104287;-79
2024/03/05 07:16:36;;;;;;;49.23;24.97;;;;;;;5.78;74.75;100438.98;124205;1099;104345;-79
2024/03/05 07:19:08;;;;;;;48.07;24.37;;;;;;;5.87;74.87;100446.38;124751;1099;104252;-79
2024/03/05 07:21:40;;;;;;;51.07;25.33;;;;;;;5.97;75.12;100443.50;124994;1099;104156;-79
2024/03/05 07:24:11;;;;;;;55.80;25.97;;;;;;;6.00;74.81;100446.27;125126;1098;102919;-80
2024/03/05 07:26:42;;;;;;;51.70;25.97;;;;;;;6.09;75.26;100446.75;124991;1099;103680;-80
2024/03/05 07:29:14;;;;;;;49.53;23.67;;;;;;;6.15;75.26;100447.88;124682;1099;104226;-81
2024/03/05 07:31:49;;;;;;;53.90;26.37;;;;;;;6.17;75.00;100443.63;124896;1099;104232;-80
2024/03/05 07:34:20;;;;;;;59.33;26.67;;;;;;;6.22;74.76;100442.19;124483;1099;103302;-80
2024/03/05 07:36:52;;;;;;;50.07;25.93;;;;;;;6.24;74.83;100446.64;125003;1099;103376;-79
2024/03/05 07:39:24;;;;;;;57.43;26.40;;;;;;;6.30;74.84;100446.08;124592;1099;102773;-80
2024/03/05 07:41:55;;;;;;;59.43;27.13;;;;;;;6.32;74.85;100443.55;124760;1099;102079;-80
2024/03/05 07:44:27;;;;;;;53.10;26.43;;;;;;;6.33;74.49;100437.50;124539;1098;104249;-79
2024/03/05 07:46:58;;;;;;;57.27;25.93;;;;;;;6.39;74.74;100438.73;124988;1099;104201;-80
2024/03/05 07:49:30;;;;;;;52.80;26.67;;;;;;;6.45;74.89;100433.84;124977;1098;104203;-81
2024/03/05 07:52:02;;;;;;;49.90;25.30;;;;;;;6.47;74.82;100429.59;124714;1099;103918;-77
2024/03/05 07:54:33;;;;;;;50.87;24.83;;;;;;;6.50;74.94;100423.64;125025;1098;102915;-77
2024/03/05 07:57:05;;;;;;;52.97;24.97;;;;;;;6.53;75.14;100423.80;125003;1099;104245;-77
2024/03/05 07:59:37;;;;;;;51.80;25.90;;;;;;;6.57;74.91;100424.84;124979;1099;104204;-77
2024/03/05 08:02:12;;;;;;;50.37;23.90;;;;;;;6.57;74.77;100435.27;124656;1099;103864;-77
2024/03/05 08:04:44;;;;;;;51.00;24.20;;;;;;;6.55;74.79;100439.52;125127;1099;103517;-77
2024/03/05 08:07:15;;;;;;;52.15;24.05;;;;;;;6.61;74.74;100437.23;124900;1099;103725;-77
2024/03/05 08:09:46;;;;;;;49.47;24.37;;;;;;;6.70;74.82;100432.48;124896;1099;104335;-77
2024/03/05 08:12:19;;;;;;;49.60;24.25;;;;;;;6.72;75.06;100441.27;124829;1099;104239;-77
2024/03/05 08:14:51;;;;;;;51.63;24.53;;;;;;;6.69;74.94;100438.50;124955;1098;104267;-77
2024/03/05 08:17:22;;;;;;;50.97;24.97;;;;;;;6.71;74.60;100434.25;124885;1099;104284;-77
2024/03/05 08:19:54;;;;;;;44.10;21.43;;;;;;;6.75;75.23;100430.98;124882;1099;104255;-78
2024/03/05 08:22:25;;;;;;;52.57;23.27;;;;;;;6.78;74.68;100435.47;124563;1098;103013;-78
2024/03/05 08:24:57;;;;;;;49.10;23.40;;;;;;;6.81;74.55;100430.41;124569;1099;104223;-77
2024/03/05 08:27:30;;;;;;;45.93;22.93;;;;;;;6.89;75.10;100433.36;124608;1099;104274;-76
2024/03/05 08:30:03;;;;;;;50.17;25.27;;;;;;;6.89;74.84;100431.67;124637;1099;104640;-76
2024/03/05 08:32:34;;;;;;;47.03;24.17;;;;;;;6.95;75.01;100428.45;125421;1099;104217;-76
2024/03/05 08:35:09;;;;;;;48.87;24.27;;;;;;;7.02;74.84;100428.83;124939;1099;104354;-78
2024/03/05 08:37:42;;;;;;;47.80;22.97;;;;;;;7.12;75.09;100426.66;124936;1099;104166;-77
2024/03/05 08:40:15;;;;;;;44.33;22.70;;;;;;;7.20;74.95;100418.39;124434;1099;104519;-76
2024/03/05 08:42:48;;;;;;;49.83;23.37;;;;;;;7.27;74.77;100424.80;124905;1099;103704;-77
2024/03/05 08:45:22;;;;;;;53.27;22.13;;;;;;;7.31;74.38;100423.24;124783;1099;104239;-77
2024/03/05 08:47:53;;;;;;;;;;;;;;;7.27;74.12;100413.47;124936;1099;104206;-77
2024/03/05 08:50:28;;;;;;;49.03;23.87;;;;;;;7.27;74.42;100421.30;125046;1099;104189;-77
2024/03/05 08:53:02;;;;;;;47.03;22.63;;;;;;;7.30;74.33;100424.05;125049;1099;104605;-78
2024/03/05 08:55:34;;;;;;;46.67;23.17;;;;;;;7.34;74.38;100420.78;124938;1099;103635;-77
2024/03/05 08:58:09;;;;;;;45.93;23.60;;;;;;;7.37;74.48;100421.81;124714;1099;104376;-80
2024/03/05 09:00:40;;;;;;;50.23;22.97;;;;;;;7.41;74.37;100425.45;124767;1099;104130;-79
2024/03/05 09:03:12;;;;;;;45.03;22.03;;;;;;;7.51;74.51;100421.55;124325;1099;104387;-79
2024/03/05 09:05:54;;;;;;;51.23;22.90;;;;;;;7.59;74.24;100422.81;124403;1099;104254;-79
2024/03/05 09:08:27;;;;;;;42.60;20.77;;;;;;;7.65;74.42;100430.02;124253;1099;104377;-79
2024/03/05 09:10:58;;;;;;;42.57;21.07;;;;;;;7.67;73.83;100423.17;124756;1099;104286;-80
2024/03/05 09:13:30;;;;;;;38.97;18.97;;;;;;;7.70;74.09;100423.31;124740;1099;104172;-80
2024/03/05 09:16:01;;;;;;;42.30;19.53;;;;;;;7.74;74.03;100426.14;124321;1099;104355;-80
2024/03/05 09:18:34;;;;;;;39.97;20.07;;;;;;;7.76;73.87;100428.83;124943;1099;104157;-79
2024/03/05 09:21:05;;;;;;;40.23;18.30;;;;;;;7.81;73.63;100432.53;124399;1099;104300;-80
2024/03/05 09:23:37;;;;;;;40.27;19.47;;;;;;;7.85;73.42;100429.24;124252;1099;104169;-80
2024/03/05 09:26:08;;;;;;;44.03;19.37;;;;;;;7.92;73.25;100431.28;124584;1099;104357;-80
2024/03/05 09:28:43;;;;;;;42.10;19.73;;;;;;;7.96;73.44;100429.70;124879;1099;104182;-79
2024/03/05 09:31:18;;;;;;;38.07;17.97;;;;;;;8.00;73.10;100431.63;124830;1099;102509;-81
2024/03/05 09:33:50;;;;;;;44.43;20.93;;;;;;;8.02;72.87;100429.09;124862;1098;104188;-79
2024/03/05 09:36:27;;;;;;;38.98;19.60;;;;;;;8.07;72.56;100432.80;124758;1099;104270;-80
2024/03/05 09:38:59;;;;;;;42.43;19.53;;;;;;;8.08;72.66;100442.44;124745;1099;104226;-79
2024/03/05 09:41:40;;;;;;;41.10;19.10;;;;;;;8.13;72.75;100435.68;126470;1098;102206;-77
2024/03/05 09:44:12;;;;;;;38.37;19.73;;;;;;;8.20;72.97;100432.52;124927;1099;104184;-78
2024/03/05 09:46:48;;;;;;;37.00;18.77;;;;;;;8.25;72.66;100435.34;124387;1099;104242;-77
2024/03/05 09:49:19;;;;;;;40.97;19.17;;;;;;;8.19;71.70;100425.50;124359;1099;104721;-77
2024/03/05 09:51:52;;;;;;;38.70;19.23;;;;;;;8.23;72.68;100424.81;124311;1102;102851;-77
2024/03/05 09:54:24;;;;;;;36.87;17.93;;;;;;;8.31;72.63;100430.38;124899;1099;104201;-78
2024/03/05 09:56:58;;;;;;;37.17;17.30;;;;;;;8.42;72.07;100428.23;124276;1099;104223;-78
2024/03/05 09:59:29;;;;;;;36.00;17.90;;;;;;;8.54;71.99;100428.80;124591;1099;104229;-78
2024/03/05 10:02:02;;;;;;;38.10;18.13;;;;;;;8.63;71.56;100433.50;124658;1098;104223;-79
2024/03/05 10:04:40;;;;;;;36.13;16.48;;;;;;;8.70;71.83;100422.48;124520;1099;104322;-79
2024/03/05 10:07:23;;;;;;;35.67;16.70;;;;;;;8.74;70.98;100426.11;124394;1099;104217;-79
2024/03/05 10:10:10;;;;;;;34.07;17.60;;;;;;;8.83;71.42;100426.50;124757;1099;104293;-79
2024/03/05 10:12:42;;;;;;;33.17;16.27;;;;;;;8.81;69.77;100420.31;124859;1099;118345;-78
2024/03/05 10:15:20;;;;;;;37.10;17.43;;;;;;;8.85;71.11;100418.71;124717;1099;102759;-78
2024/03/05 10:17:52;;;;;;;33.87;17.83;;;;;;;8.92;69.98;100415.53;125061;1099;104252;-80
2024/03/05 10:20:36;;;;;;;34.47;17.07;;;;;;;9.00;69.86;100417.61;125155;1099;104229;-79
2024/03/05 10:23:09;;;;;;;38.80;17.75;;;;;;;9.03;69.58;100408.12;124761;1099;102784;-79
2024/03/05 10:25:40;;;;;;;31.80;16.97;;;;;;;9.04;69.68;100415.11;125113;1098;104166;-80
2024/03/05 10:28:13;;;;;;;38.70;18.37;;;;;;;9.03;68.79;100405.50;125172;1099;104264;-79
2024/03/05 10:30:47;;;;;;;37.00;17.47;;;;;;;9.02;69.40;100401.08;125165;1099;104195;-80
2024/03/05 10:33:24;;;;;;;34.98;15.80;;;;;;;9.09;70.03;100400.51;125082;1099;104213;-79
2024/03/05 10:35:56;;;;;;;32.93;16.47;;;;;;;9.08;69.22;100396.09;124742;1102;104219;-79
2024/03/05 10:38:27;;;;;;;31.87;15.67;;;;;;;9.09;68.18;100397.89;125168;1099;104830;-79
2024/03/05 10:41:02;;;;;;;31.77;17.00;;;;;;;9.03;68.49;100395.03;125044;1099;104172;-79
2024/03/05 10:43:33;;;;;;;34.67;17.17;;;;;;;8.91;67.85;100403.27;124737;1099;104239;-79
2024/03/05 10:46:05;;;;;;;34.80;16.77;;;;;;;8.88;68.32;100398.82;125118;1099;104210;-79
2024/03/05 10:48:36;;;;;;;34.10;16.90;;;;;;;8.89;67.34;100395.34;125183;1099;104153;-80
2024/03/05 10:51:12;;;;;;;34.40;15.73;;;;;;;8.90;67.92;100397.15;125183;1098;102050;-79
2024/03/05 10:53:44;;;;;;;33.87;16.90;;;;;;;8.95;67.74;100395.59;124541;1099;104160;-79
2024/03/05 10:56:16;;;;;;;32.33;16.40;;;;;;;9.09;67.72;100390.04;124579;1100;104216;-79
2024/03/05 10:59:23;;;;;;;33.23;16.33;;;;;;;9.19;68.03;100379.08;125048;1099;104076;-80
2024/03/05 11:01:58;;;;;;;31.33;16.30;;;;;;;9.24;67.98;100380.17;124701;1099;104188;-80
2024/03/05 11:04:32;;;;;;;34.97;17.30;;;;;;;9.35;67.31;100383.22;124658;1099;104275;-79
2024/03/05 11:07:06;;;;;;;34.53;16.23;;;;;;;9.43;67.27;100381.77;124602;1099;104348;-79
2024/03/05 11:09:40;;;;;;;32.95;16.17;;;;;;;9.55;67.36;100378.70;124862;1099;102571;-78
2024/03/05 11:12:19;;;;;;;34.93;16.50;;;;;;;9.63;66.92;100369.44;124611;1102;104223;-77
2024/03/05 11:14:50;;;;;;;37.23;16.57;;;;;;;9.76;67.12;100372.52;126240;1099;102519;-77
2024/03/05 11:17:22;;;;;;;36.13;16.97;;;;;;;9.82;67.48;100370.12;125607;1099;104284;-77
2024/03/05 11:19:54;;;;;;;33.77;16.87;;;;;;;9.92;66.99;100374.84;124498;1102;104383;-78
2024/03/05 11:22:27;;;;;;;33.20;16.93;;;;;;;9.92;66.10;100374.84;124691;1099;104241;-79
2024/03/05 11:25:01;;;;;;;33.90;17.00;;;;;;;9.93;65.71;100374.02;124449;1099;104235;-77
2024/03/05 11:27:33;;;;;;;;;;;;;;;9.79;63.71;100376.13;124876;1099;104181;-80
2024/03/05 11:30:18;;;;;;;33.20;16.90;;;;;;;9.64;65.47;100368.58;124774;1099;104185;-79
2024/03/05 11:32:52;;;;;;;34.43;16.33;;;;;;;9.62;65.76;100365.02;124539;1099;102749;-79